sensor_id;sensor_type;location;lat;lon;timestamp;pressure;altitude;pressure_sealevel;temperature;humidity
65010;BME280;51556;50.002;22.014;2023-03-07T00:00:23;97985.06;;;3.28;67.23
65010;BME280;51556;50.002;22.014;2023-03-07T00:02:51;97986.15;;;3.25;67.38
65010;BME280;51556;50.002;22.014;2023-03-07T00:05:16;97987.79;;;3.22;67.34
65010;BME280;51556;50.002;22.014;2023-03-07T00:07:42;97984.33;;;3.20;67.12
65010;BME280;51556;50.002;22.014;2023-03-07T00:10:07;97983.95;;;3.22;67.29
65010;BME280;51556;50.002;22.014;2023-03-07T00:12:33;97982.23;;;3.22;67.20
65010;BME280;51556;50.002;22.014;2023-03-07T00:14:58;97982.39;;;3.22;66.99
65010;BME280;51556;50.002;22.014;2023-03-07T00:17:23;97983.14;;;3.19;67.38
65010;BME280;51556;50.002;22.014;2023-03-07T00:19:49;97983.17;;;3.17;67.21
65010;BME280;51556;50.002;22.014;2023-03-07T00:22:14;97983.52;;;3.17;67.12
65010;BME280;51556;50.002;22.014;2023-03-07T00:24:40;97982.70;;;3.15;66.83
65010;BME280;51556;50.002;22.014;2023-03-07T00:27:05;97980.84;;;3.11;66.77
65010;BME280;51556;50.002;22.014;2023-03-07T00:29:30;97983.27;;;3.12;67.15
65010;BME280;51556;50.002;22.014;2023-03-07T00:31:56;97985.02;;;3.12;66.92
65010;BME280;51556;50.002;22.014;2023-03-07T00:34:21;97980.45;;;3.14;67.14
65010;BME280;51556;50.002;22.014;2023-03-07T00:36:47;97980.05;;;3.17;67.07
65010;BME280;51556;50.002;22.014;2023-03-07T00:39:12;97975.54;;;3.16;66.70
65010;BME280;51556;50.002;22.014;2023-03-07T00:41:38;97978.16;;;3.16;67.04
65010;BME280;51556;50.002;22.014;2023-03-07T00:44:03;97975.48;;;3.19;67.05
65010;BME280;51556;50.002;22.014;2023-03-07T00:46:29;97974.04;;;3.22;66.84
65010;BME280;51556;50.002;22.014;2023-03-07T00:48:54;97975.24;;;3.23;66.88
65010;BME280;51556;50.002;22.014;2023-03-07T00:51:22;97974.21;;;3.22;66.54
65010;BME280;51556;50.002;22.014;2023-03-07T00:53:48;97973.64;;;3.26;66.77
65010;BME280;51556;50.002;22.014;2023-03-07T00:56:17;97968.42;;;3.25;66.61
65010;BME280;51556;50.002;22.014;2023-03-07T00:58:44;97965.90;;;3.20;66.48
65010;BME280;51556;50.002;22.014;2023-03-07T01:01:10;97967.73;;;3.16;66.23
65010;BME280;51556;50.002;22.014;2023-03-07T01:03:36;97962.08;;;3.10;66.31
65010;BME280;51556;50.002;22.014;2023-03-07T01:06:02;97960.73;;;3.08;66.15
65010;BME280;51556;50.002;22.014;2023-03-07T01:08:28;97958.67;;;3.07;66.14
65010;BME280;51556;50.002;22.014;2023-03-07T01:10:57;97957.14;;;3.05;66.35
65010;BME280;51556;50.002;22.014;2023-03-07T01:13:23;97950.52;;;3.05;66.18
65010;BME280;51556;50.002;22.014;2023-03-07T01:15:49;97948.94;;;3.06;66.00
65010;BME280;51556;50.002;22.014;2023-03-07T01:18:14;97948.91;;;3.08;65.80
65010;BME280;51556;50.002;22.014;2023-03-07T01:20:40;97943.39;;;3.05;65.88
65010;BME280;51556;50.002;22.014;2023-03-07T01:23:05;97942.59;;;3.02;66.04
65010;BME280;51556;50.002;22.014;2023-03-07T01:25:36;97938.66;;;2.98;65.63
65010;BME280;51556;50.002;22.014;2023-03-07T01:28:02;97937.02;;;2.94;65.73
65010;BME280;51556;50.002;22.014;2023-03-07T01:30:28;97934.45;;;2.92;65.85
65010;BME280;51556;50.002;22.014;2023-03-07T01:32:57;97930.52;;;2.88;65.67
65010;BME280;51556;50.002;22.014;2023-03-07T01:35:23;97929.86;;;2.86;65.39
65010;BME280;51556;50.002;22.014;2023-03-07T01:37:49;97927.23;;;2.86;65.73
65010;BME280;51556;50.002;22.014;2023-03-07T01:40:14;97925.69;;;2.86;65.53
65010;BME280;51556;50.002;22.014;2023-03-07T01:42:39;97926.96;;;2.82;65.49
65010;BME280;51556;50.002;22.014;2023-03-07T01:46:08;97923.48;;;2.83;65.54
65010;BME280;51556;50.002;22.014;2023-03-07T01:47:52;97924.34;;;2.84;65.44
65010;BME280;51556;50.002;22.014;2023-03-07T01:50:17;97922.20;;;2.87;65.40
65010;BME280;51556;50.002;22.014;2023-03-07T01:52:47;97919.22;;;2.88;65.18
65010;BME280;51556;50.002;22.014;2023-03-07T01:55:17;97925.65;;;2.89;64.92
65010;BME280;51556;50.002;22.014;2023-03-07T01:57:45;97925.69;;;2.86;65.06
65010;BME280;51556;50.002;22.014;2023-03-07T02:00:17;97922.70;;;2.88;65.12
65010;BME280;51556;50.002;22.014;2023-03-07T02:02:58;97925.26;;;2.91;64.86
65010;BME280;51556;50.002;22.014;2023-03-07T02:05:31;97924.09;;;2.88;64.69
65010;BME280;51556;50.002;22.014;2023-03-07T02:07:59;97921.27;;;2.80;64.90
65010;BME280;51556;50.002;22.014;2023-03-07T02:10:27;97928.84;;;2.74;65.14
65010;BME280;51556;50.002;22.014;2023-03-07T02:12:54;97926.30;;;2.70;65.40
65010;BME280;51556;50.002;22.014;2023-03-07T02:15:20;97927.44;;;2.64;65.55
65010;BME280;51556;50.002;22.014;2023-03-07T02:17:45;97926.67;;;2.59;65.68
65010;BME280;51556;50.002;22.014;2023-03-07T02:22:37;97931.23;;;2.45;66.03
65010;BME280;51556;50.002;22.014;2023-03-07T02:25:06;97927.30;;;2.41;66.34
65010;BME280;51556;50.002;22.014;2023-03-07T02:27:32;97924.92;;;2.38;66.30
65010;BME280;51556;50.002;22.014;2023-03-07T02:29:59;97927.39;;;2.35;66.35
65010;BME280;51556;50.002;22.014;2023-03-07T02:32:24;97922.35;;;2.36;66.49
65010;BME280;51556;50.002;22.014;2023-03-07T02:34:49;97926.17;;;2.35;66.69
65010;BME280;51556;50.002;22.014;2023-03-07T02:37:16;97924.45;;;2.35;66.58
65010;BME280;51556;50.002;22.014;2023-03-07T02:39:44;97924.40;;;2.38;66.76
65010;BME280;51556;50.002;22.014;2023-03-07T02:42:13;97923.13;;;2.41;66.68
65010;BME280;51556;50.002;22.014;2023-03-07T02:44:46;97923.96;;;2.44;66.43
65010;BME280;51556;50.002;22.014;2023-03-07T02:47:11;97923.44;;;2.44;66.83
65010;BME280;51556;50.002;22.014;2023-03-07T02:49:37;97925.69;;;2.45;66.84
65010;BME280;51556;50.002;22.014;2023-03-07T02:52:03;97923.73;;;2.47;66.62
65010;BME280;51556;50.002;22.014;2023-03-07T02:54:28;97924.72;;;2.51;66.64
65010;BME280;51556;50.002;22.014;2023-03-07T02:56:53;97927.99;;;2.53;66.63
65010;BME280;51556;50.002;22.014;2023-03-07T02:59:19;97927.31;;;2.52;66.64
65010;BME280;51556;50.002;22.014;2023-03-07T03:01:44;97927.16;;;2.51;66.61
65010;BME280;51556;50.002;22.014;2023-03-07T03:04:10;97926.46;;;2.51;66.42
65010;BME280;51556;50.002;22.014;2023-03-07T03:06:35;97927.13;;;2.52;66.58
65010;BME280;51556;50.002;22.014;2023-03-07T03:09:01;97926.79;;;2.52;66.40
65010;BME280;51556;50.002;22.014;2023-03-07T03:11:26;97924.84;;;2.54;66.32
65010;BME280;51556;50.002;22.014;2023-03-07T03:13:52;97924.98;;;2.57;66.29
65010;BME280;51556;50.002;22.014;2023-03-07T03:16:17;97927.27;;;2.54;66.20
65010;BME280;51556;50.002;22.014;2023-03-07T03:18:42;97926.11;;;2.51;65.96
65010;BME280;51556;50.002;22.014;2023-03-07T03:21:08;97925.42;;;2.50;65.95
65010;BME280;51556;50.002;22.014;2023-03-07T03:23:34;97927.66;;;2.52;65.88
65010;BME280;51556;50.002;22.014;2023-03-07T03:26:01;97931.06;;;2.56;65.49
65010;BME280;51556;50.002;22.014;2023-03-07T03:28:26;97928.45;;;2.56;65.51
65010;BME280;51556;50.002;22.014;2023-03-07T03:31:00;97927.44;;;2.55;65.26
65010;BME280;51556;50.002;22.014;2023-03-07T03:33:27;97929.38;;;2.53;65.42
65010;BME280;51556;50.002;22.014;2023-03-07T03:35:59;97931.27;;;2.55;65.27
65010;BME280;51556;50.002;22.014;2023-03-07T03:38:25;97929.41;;;2.51;64.94
65010;BME280;51556;50.002;22.014;2023-03-07T03:40:51;97927.45;;;2.44;65.25
65010;BME280;51556;50.002;22.014;2023-03-07T03:43:17;97933.01;;;2.43;65.14
65010;BME280;51556;50.002;22.014;2023-03-07T03:45:43;97936.34;;;2.40;65.21
65010;BME280;51556;50.002;22.014;2023-03-07T03:48:08;97940.20;;;2.38;65.17
65010;BME280;51556;50.002;22.014;2023-03-07T03:50:34;97939.07;;;2.32;65.22
65010;BME280;51556;50.002;22.014;2023-03-07T03:52:59;97937.58;;;2.27;65.20
65010;BME280;51556;50.002;22.014;2023-03-07T03:55:25;97940.87;;;2.28;65.17
65010;BME280;51556;50.002;22.014;2023-03-07T03:57:50;97939.34;;;2.25;65.44
65010;BME280;51556;50.002;22.014;2023-03-07T04:00:17;97941.45;;;2.24;65.51
65010;BME280;51556;50.002;22.014;2023-03-07T04:02:44;97942.60;;;2.19;65.52
65010;BME280;51556;50.002;22.014;2023-03-07T04:05:10;97944.20;;;2.16;65.75
65010;BME280;51556;50.002;22.014;2023-03-07T04:07:36;97945.23;;;2.16;65.72
65010;BME280;51556;50.002;22.014;2023-03-07T04:10:02;97948.14;;;2.19;66.11
65010;BME280;51556;50.002;22.014;2023-03-07T04:12:27;97938.66;;;2.25;65.90
65010;BME280;51556;50.002;22.014;2023-03-07T04:14:53;97938.60;;;2.29;65.95
65010;BME280;51556;50.002;22.014;2023-03-07T04:17:18;97936.85;;;2.30;65.95
65010;BME280;51556;50.002;22.014;2023-03-07T04:19:43;97935.95;;;2.32;65.87
65010;BME280;51556;50.002;22.014;2023-03-07T04:22:09;97935.08;;;2.32;65.87
65010;BME280;51556;50.002;22.014;2023-03-07T04:24:34;97934.35;;;2.34;66.09
65010;BME280;51556;50.002;22.014;2023-03-07T04:26:59;97932.77;;;2.35;66.02
65010;BME280;51556;50.002;22.014;2023-03-07T04:29:25;97928.52;;;2.41;65.93
65010;BME280;51556;50.002;22.014;2023-03-07T04:31:50;97924.67;;;2.43;65.76
65010;BME280;51556;50.002;22.014;2023-03-07T04:34:16;97923.41;;;2.45;65.92
65010;BME280;51556;50.002;22.014;2023-03-07T04:36:41;97924.45;;;2.46;65.60
65010;BME280;51556;50.002;22.014;2023-03-07T04:39:06;97929.27;;;2.49;65.69
65010;BME280;51556;50.002;22.014;2023-03-07T04:41:32;97933.73;;;2.52;65.43
65010;BME280;51556;50.002;22.014;2023-03-07T04:43:58;97933.91;;;2.52;65.56
65010;BME280;51556;50.002;22.014;2023-03-07T04:46:23;97935.62;;;2.54;65.69
65010;BME280;51556;50.002;22.014;2023-03-07T04:48:49;97935.23;;;2.57;65.65
65010;BME280;51556;50.002;22.014;2023-03-07T04:51:14;97938.51;;;2.58;65.39
65010;BME280;51556;50.002;22.014;2023-03-07T04:53:39;97939.70;;;2.59;65.33
65010;BME280;51556;50.002;22.014;2023-03-07T04:56:06;97943.77;;;2.63;65.51
65010;BME280;51556;50.002;22.014;2023-03-07T04:58:33;97943.80;;;2.62;65.51
65010;BME280;51556;50.002;22.014;2023-03-07T05:01:00;97945.72;;;2.61;65.45
65010;BME280;51556;50.002;22.014;2023-03-07T05:03:26;97942.05;;;2.63;65.45
65010;BME280;51556;50.002;22.014;2023-03-07T05:05:52;97942.73;;;2.63;65.47
65010;BME280;51556;50.002;22.014;2023-03-07T05:08:17;97946.38;;;2.64;65.35
65010;BME280;51556;50.002;22.014;2023-03-07T05:10:43;97946.88;;;2.65;65.60
65010;BME280;51556;50.002;22.014;2023-03-07T05:13:09;97943.83;;;2.71;65.70
65010;BME280;51556;50.002;22.014;2023-03-07T05:15:35;97948.88;;;2.81;65.70
65010;BME280;51556;50.002;22.014;2023-03-07T05:18:00;97950.13;;;2.89;65.58
65010;BME280;51556;50.002;22.014;2023-03-07T05:20:26;97951.29;;;2.93;65.56
65010;BME280;51556;50.002;22.014;2023-03-07T05:22:51;97953.53;;;2.94;65.46
65010;BME280;51556;50.002;22.014;2023-03-07T05:25:17;97952.45;;;2.96;65.25
65010;BME280;51556;50.002;22.014;2023-03-07T05:27:42;97954.79;;;3.00;65.23
65010;BME280;51556;50.002;22.014;2023-03-07T05:30:08;97956.29;;;3.03;65.35
65010;BME280;51556;50.002;22.014;2023-03-07T05:32:34;97955.28;;;3.01;64.92
65010;BME280;51556;50.002;22.014;2023-03-07T05:34:59;97951.48;;;3.00;65.00
65010;BME280;51556;50.002;22.014;2023-03-07T05:37:24;97954.19;;;2.96;65.38
65010;BME280;51556;50.002;22.014;2023-03-07T05:39:50;97955.95;;;2.94;65.36
65010;BME280;51556;50.002;22.014;2023-03-07T05:42:15;97955.26;;;2.94;65.57
65010;BME280;51556;50.002;22.014;2023-03-07T05:44:41;97954.25;;;3.00;65.47
65010;BME280;51556;50.002;22.014;2023-03-07T05:47:07;97954.38;;;3.04;65.31
65010;BME280;51556;50.002;22.014;2023-03-07T05:49:32;97950.88;;;3.05;65.33
65010;BME280;51556;50.002;22.014;2023-03-07T05:51:58;97950.86;;;3.07;65.23
65010;BME280;51556;50.002;22.014;2023-03-07T05:54:23;97953.19;;;3.11;65.32
65010;BME280;51556;50.002;22.014;2023-03-07T05:56:49;97955.30;;;3.19;65.29
65010;BME280;51556;50.002;22.014;2023-03-07T05:59:14;97954.20;;;3.24;64.80
65010;BME280;51556;50.002;22.014;2023-03-07T06:01:42;97955.60;;;3.23;64.69
65010;BME280;51556;50.002;22.014;2023-03-07T06:04:08;97954.36;;;3.24;65.16
65010;BME280;51556;50.002;22.014;2023-03-07T06:06:34;97956.09;;;3.25;65.07
65010;BME280;51556;50.002;22.014;2023-03-07T06:09:03;97958.41;;;3.30;64.85
65010;BME280;51556;50.002;22.014;2023-03-07T06:11:30;97962.94;;;3.31;64.78
65010;BME280;51556;50.002;22.014;2023-03-07T06:13:56;97964.64;;;3.33;64.59
65010;BME280;51556;50.002;22.014;2023-03-07T06:16:21;97964.10;;;3.33;64.65
65010;BME280;51556;50.002;22.014;2023-03-07T06:18:47;97964.75;;;3.34;64.53
65010;BME280;51556;50.002;22.014;2023-03-07T06:21:14;97964.96;;;3.42;64.39
65010;BME280;51556;50.002;22.014;2023-03-07T06:23:39;97964.95;;;3.51;64.38
65010;BME280;51556;50.002;22.014;2023-03-07T06:26:05;97964.98;;;3.60;64.40
65010;BME280;51556;50.002;22.014;2023-03-07T06:28:31;97968.25;;;3.70;64.13
65010;BME280;51556;50.002;22.014;2023-03-07T06:30:57;97965.67;;;3.75;63.89
65010;BME280;51556;50.002;22.014;2023-03-07T06:33:22;97970.64;;;3.79;63.95
65010;BME280;51556;50.002;22.014;2023-03-07T06:35:47;97969.52;;;3.84;63.84
65010;BME280;51556;50.002;22.014;2023-03-07T06:38:13;97966.89;;;3.92;63.70
65010;BME280;51556;50.002;22.014;2023-03-07T06:40:39;97969.84;;;3.93;63.35
65010;BME280;51556;50.002;22.014;2023-03-07T06:43:04;97968.77;;;3.94;63.45
65010;BME280;51556;50.002;22.014;2023-03-07T06:45:30;97968.50;;;3.99;63.08
65010;BME280;51556;50.002;22.014;2023-03-07T06:47:55;97968.39;;;4.04;63.38
65010;BME280;51556;50.002;22.014;2023-03-07T06:50:20;97962.19;;;4.09;63.41
65010;BME280;51556;50.002;22.014;2023-03-07T06:52:46;97964.85;;;4.14;63.32
65010;BME280;51556;50.002;22.014;2023-03-07T06:55:14;97965.46;;;4.18;62.58
65010;BME280;51556;50.002;22.014;2023-03-07T06:57:39;97963.08;;;4.23;62.91
65010;BME280;51556;50.002;22.014;2023-03-07T07:00:06;97965.55;;;4.22;62.21
65010;BME280;51556;50.002;22.014;2023-03-07T07:02:32;97963.96;;;4.23;62.79
65010;BME280;51556;50.002;22.014;2023-03-07T07:04:57;97962.69;;;4.17;62.17
65010;BME280;51556;50.002;22.014;2023-03-07T07:07:24;97966.03;;;4.16;62.47
65010;BME280;51556;50.002;22.014;2023-03-07T07:09:49;97967.22;;;4.17;62.73
65010;BME280;51556;50.002;22.014;2023-03-07T07:12:15;97968.34;;;4.22;62.47
65010;BME280;51556;50.002;22.014;2023-03-07T07:14:40;97965.29;;;4.25;62.31
65010;BME280;51556;50.002;22.014;2023-03-07T07:17:06;97965.22;;;4.29;62.10
65010;BME280;51556;50.002;22.014;2023-03-07T07:19:32;97966.84;;;4.34;62.55
65010;BME280;51556;50.002;22.014;2023-03-07T07:21:58;97964.58;;;4.42;62.36
65010;BME280;51556;50.002;22.014;2023-03-07T07:24:23;97963.58;;;4.47;62.14
65010;BME280;51556;50.002;22.014;2023-03-07T07:26:48;97966.33;;;4.55;62.23
65010;BME280;51556;50.002;22.014;2023-03-07T07:29:14;97963.52;;;4.64;62.06
65010;BME280;51556;50.002;22.014;2023-03-07T07:31:40;97966.77;;;4.74;61.90
65010;BME280;51556;50.002;22.014;2023-03-07T07:34:05;97966.03;;;4.76;62.06
65010;BME280;51556;50.002;22.014;2023-03-07T07:36:31;97965.42;;;4.72;61.19
65010;BME280;51556;50.002;22.014;2023-03-07T07:38:57;97969.14;;;4.70;60.95
65010;BME280;51556;50.002;22.014;2023-03-07T07:41:22;97967.82;;;4.66;61.08
65010;BME280;51556;50.002;22.014;2023-03-07T07:43:47;97969.79;;;4.64;60.76
65010;BME280;51556;50.002;22.014;2023-03-07T07:46:16;97966.34;;;4.62;60.90
65010;BME280;51556;50.002;22.014;2023-03-07T07:48:41;97967.02;;;4.63;60.85
65010;BME280;51556;50.002;22.014;2023-03-07T07:51:08;97966.83;;;4.64;60.89
65010;BME280;51556;50.002;22.014;2023-03-07T07:53:34;97962.40;;;4.67;60.35
65010;BME280;51556;50.002;22.014;2023-03-07T07:55:59;97960.58;;;4.71;60.64
65010;BME280;51556;50.002;22.014;2023-03-07T07:58:24;97959.73;;;4.76;60.72
65010;BME280;51556;50.002;22.014;2023-03-07T08:00:50;97956.99;;;4.82;60.34
65010;BME280;51556;50.002;22.014;2023-03-07T08:03:15;97953.73;;;4.85;60.29
65010;BME280;51556;50.002;22.014;2023-03-07T08:05:45;97953.61;;;4.91;59.87
65010;BME280;51556;50.002;22.014;2023-03-07T08:08:13;97950.27;;;4.92;60.37
65010;BME280;51556;50.002;22.014;2023-03-07T08:10:39;97952.69;;;5.00;59.97
65010;BME280;51556;50.002;22.014;2023-03-07T08:13:07;97951.27;;;5.07;59.87
65010;BME280;51556;50.002;22.014;2023-03-07T08:15:33;97948.34;;;5.13;59.97
65010;BME280;51556;50.002;22.014;2023-03-07T08:17:58;97953.96;;;5.18;59.46
65010;BME280;51556;50.002;22.014;2023-03-07T08:20:24;97944.39;;;5.23;59.37
65010;BME280;51556;50.002;22.014;2023-03-07T08:22:50;97944.12;;;5.26;59.31
65010;BME280;51556;50.002;22.014;2023-03-07T08:25:19;97940.91;;;5.29;59.47
65010;BME280;51556;50.002;22.014;2023-03-07T08:27:46;97940.61;;;5.33;59.20
65010;BME280;51556;50.002;22.014;2023-03-07T08:30:11;97946.46;;;5.30;58.20
65010;BME280;51556;50.002;22.014;2023-03-07T08:32:37;97947.95;;;5.27;58.32
65010;BME280;51556;50.002;22.014;2023-03-07T08:35:02;97951.09;;;5.20;58.07
65010;BME280;51556;50.002;22.014;2023-03-07T08:37:28;97950.25;;;5.13;58.48
65010;BME280;51556;50.002;22.014;2023-03-07T08:39:53;97951.61;;;5.14;58.95
65010;BME280;51556;50.002;22.014;2023-03-07T08:42:19;97952.70;;;5.19;58.67
65010;BME280;51556;50.002;22.014;2023-03-07T08:44:44;97951.42;;;5.20;58.67
65010;BME280;51556;50.002;22.014;2023-03-07T08:47:09;97950.12;;;5.24;58.74
65010;BME280;51556;50.002;22.014;2023-03-07T08:49:38;97945.98;;;5.28;58.73
65010;BME280;51556;50.002;22.014;2023-03-07T08:52:03;97945.23;;;5.37;58.59
65010;BME280;51556;50.002;22.014;2023-03-07T08:54:28;97943.92;;;5.41;58.41
65010;BME280;51556;50.002;22.014;2023-03-07T08:56:55;97943.56;;;5.41;57.55
65010;BME280;51556;50.002;22.014;2023-03-07T08:59:20;97945.71;;;5.38;57.36
65010;BME280;51556;50.002;22.014;2023-03-07T09:01:46;97941.86;;;5.33;57.39
65010;BME280;51556;50.002;22.014;2023-03-07T09:04:11;97941.55;;;5.38;57.69
65010;BME280;51556;50.002;22.014;2023-03-07T09:06:36;97937.90;;;5.44;57.46
65010;BME280;51556;50.002;22.014;2023-03-07T09:09:02;97931.68;;;5.48;57.53
65010;BME280;51556;50.002;22.014;2023-03-07T09:11:30;97933.01;;;5.57;57.87
65010;BME280;51556;50.002;22.014;2023-03-07T09:13:55;97931.09;;;5.68;57.80
65010;BME280;51556;50.002;22.014;2023-03-07T09:16:21;97931.36;;;5.77;57.06
65010;BME280;51556;50.002;22.014;2023-03-07T09:18:47;97924.04;;;5.83;57.18
65010;BME280;51556;50.002;22.014;2023-03-07T09:21:12;97921.40;;;5.90;56.31
65010;BME280;51556;50.002;22.014;2023-03-07T09:23:37;97917.89;;;5.96;56.18
65010;BME280;51556;50.002;22.014;2023-03-07T09:26:03;97919.39;;;6.04;56.41
65010;BME280;51556;50.002;22.014;2023-03-07T09:28:30;97913.25;;;6.11;55.15
65010;BME280;51556;50.002;22.014;2023-03-07T09:30:55;97913.66;;;6.15;53.13
65010;BME280;51556;50.002;22.014;2023-03-07T09:33:20;97910.67;;;6.15;53.08
65010;BME280;51556;50.002;22.014;2023-03-07T09:35:46;97908.05;;;6.22;54.54
65010;BME280;51556;50.002;22.014;2023-03-07T09:38:11;97901.95;;;6.36;54.27
65010;BME280;51556;50.002;22.014;2023-03-07T09:40:37;97900.90;;;6.48;53.51
65010;BME280;51556;50.002;22.014;2023-03-07T09:50:56;97888.38;;;6.62;51.83
65010;BME280;51556;50.002;22.014;2023-03-07T09:53:55;97892.11;;;6.66;51.43
65010;BME280;51556;50.002;22.014;2023-03-07T09:56:24;97888.20;;;6.62;51.07
65010;BME280;51556;50.002;22.014;2023-03-07T09:59:33;97887.70;;;6.72;52.16
65010;BME280;51556;50.002;22.014;2023-03-07T10:07:28;97881.20;;;7.03;50.81
65010;BME280;51556;50.002;22.014;2023-03-07T10:10:01;97884.38;;;7.12;50.93
65010;BME280;51556;50.002;22.014;2023-03-07T10:15:14;97880.04;;;7.21;50.37
65010;BME280;51556;50.002;22.014;2023-03-07T10:18:08;97875.55;;;7.28;50.41
65010;BME280;51556;50.002;22.014;2023-03-07T10:23:43;97867.79;;;7.54;49.31
65010;BME280;51556;50.002;22.014;2023-03-07T10:28:41;97858.14;;;7.73;48.28
65010;BME280;51556;50.002;22.014;2023-03-07T10:31:26;97857.25;;;7.78;48.26
65010;BME280;51556;50.002;22.014;2023-03-07T10:33:53;97852.45;;;7.88;48.24
65010;BME280;51556;50.002;22.014;2023-03-07T10:36:37;97845.13;;;8.01;48.72
65010;BME280;51556;50.002;22.014;2023-03-07T10:39:34;97845.39;;;8.13;48.02
65010;BME280;51556;50.002;22.014;2023-03-07T10:42:02;97842.89;;;8.14;46.79
65010;BME280;51556;50.002;22.014;2023-03-07T10:44:29;97836.45;;;8.25;48.01
65010;BME280;51556;50.002;22.014;2023-03-07T10:46:57;97836.13;;;8.38;47.51
65010;BME280;51556;50.002;22.014;2023-03-07T10:49:25;97829.25;;;8.48;48.19
65010;BME280;51556;50.002;22.014;2023-03-07T10:51:57;97827.90;;;8.63;47.71
65010;BME280;51556;50.002;22.014;2023-03-07T10:54:30;97826.55;;;8.75;47.02
65010;BME280;51556;50.002;22.014;2023-03-07T10:59:35;97818.41;;;8.84;46.00
65010;BME280;51556;50.002;22.014;2023-03-07T11:02:01;97815.23;;;8.85;45.76
65010;BME280;51556;50.002;22.014;2023-03-07T11:04:43;97809.35;;;8.95;46.14
65010;BME280;51556;50.002;22.014;2023-03-07T11:09:48;97804.15;;;9.28;44.71
65010;BME280;51556;50.002;22.014;2023-03-07T11:12:17;97797.59;;;9.37;43.85
65010;BME280;51556;50.002;22.014;2023-03-07T11:14:45;97800.27;;;9.45;43.59
65010;BME280;51556;50.002;22.014;2023-03-07T11:17:24;97792.26;;;9.58;43.29
65010;BME280;51556;50.002;22.014;2023-03-07T11:19:55;97786.56;;;9.67;42.77
65010;BME280;51556;50.002;22.014;2023-03-07T11:22:27;97784.73;;;9.72;42.67
65010;BME280;51556;50.002;22.014;2023-03-07T11:27:29;97782.47;;;9.71;42.19
65010;BME280;51556;50.002;22.014;2023-03-07T11:30:06;97783.17;;;9.75;42.36
65010;BME280;51556;50.002;22.014;2023-03-07T11:32:36;97785.52;;;9.75;41.86
65010;BME280;51556;50.002;22.014;2023-03-07T11:35:19;97777.61;;;9.70;42.10
65010;BME280;51556;50.002;22.014;2023-03-07T11:38:01;97767.81;;;9.73;42.69
65010;BME280;51556;50.002;22.014;2023-03-07T11:40:31;97760.22;;;9.92;42.84
65010;BME280;51556;50.002;22.014;2023-03-07T11:46:04;97738.55;;;10.26;41.30
65010;BME280;51556;50.002;22.014;2023-03-07T11:48:47;97737.41;;;10.45;40.88
65010;BME280;51556;50.002;22.014;2023-03-07T11:53:58;97734.20;;;10.56;39.53
65010;BME280;51556;50.002;22.014;2023-03-07T11:56:39;97724.90;;;10.59;39.07
65010;BME280;51556;50.002;22.014;2023-03-07T12:01:55;97721.84;;;10.78;38.40
65010;BME280;51556;50.002;22.014;2023-03-07T12:07:08;97716.88;;;11.01;38.85
65010;BME280;51556;50.002;22.014;2023-03-07T12:15:30;97699.36;;;12.10;37.50
65010;BME280;51556;50.002;22.014;2023-03-07T12:23:28;97706.41;;;13.55;34.41
65010;BME280;51556;50.002;22.014;2023-03-07T12:26:12;97712.52;;;13.73;32.09
65010;BME280;51556;50.002;22.014;2023-03-07T12:28:45;97703.71;;;13.96;32.15
65010;BME280;51556;50.002;22.014;2023-03-07T12:31:26;97702.56;;;14.00;31.93
65010;BME280;51556;50.002;22.014;2023-03-07T12:36:26;97697.40;;;14.61;31.70
65010;BME280;51556;50.002;22.014;2023-03-07T12:38:57;97694.32;;;14.98;31.97
65010;BME280;51556;50.002;22.014;2023-03-07T12:41:44;97704.05;;;15.28;29.89
65010;BME280;51556;50.002;22.014;2023-03-07T12:47:36;97700.52;;;15.28;29.56
65010;BME280;51556;50.002;22.014;2023-03-07T12:50:19;97708.01;;;14.88;30.34
65010;BME280;51556;50.002;22.014;2023-03-07T12:55:42;97711.21;;;13.17;31.01
65010;BME280;51556;50.002;22.014;2023-03-07T13:01:03;97709.47;;;12.42;33.71
65010;BME280;51556;50.002;22.014;2023-03-07T13:03:51;97712.98;;;12.03;33.98
65010;BME280;51556;50.002;22.014;2023-03-07T13:06:20;97708.39;;;11.47;35.47
65010;BME280;51556;50.002;22.014;2023-03-07T13:08:50;97713.59;;;11.19;36.21
65010;BME280;51556;50.002;22.014;2023-03-07T13:11:18;97709.08;;;10.95;37.34
65010;BME280;51556;50.002;22.014;2023-03-07T13:16:29;97709.42;;;10.62;37.42
65010;BME280;51556;50.002;22.014;2023-03-07T13:21:55;97701.97;;;10.15;37.58
65010;BME280;51556;50.002;22.014;2023-03-07T13:24:36;97702.50;;;9.97;38.11
65010;BME280;51556;50.002;22.014;2023-03-07T13:27:03;97702.52;;;9.75;38.60
65010;BME280;51556;50.002;22.014;2023-03-07T13:48:12;97698.67;;;9.01;42.47
65010;BME280;51556;50.002;22.014;2023-03-07T13:51:06;97693.55;;;9.02;41.97
65010;BME280;51556;50.002;22.014;2023-03-07T14:01:20;97691.96;;;9.76;40.78
65010;BME280;51556;50.002;22.014;2023-03-07T14:03:51;97686.55;;;9.82;40.81
65010;BME280;51556;50.002;22.014;2023-03-07T14:06:18;97684.52;;;9.84;41.68
65010;BME280;51556;50.002;22.014;2023-03-07T14:08:46;97684.64;;;9.86;41.47
65010;BME280;51556;50.002;22.014;2023-03-07T14:11:17;97685.08;;;9.80;41.03
65010;BME280;51556;50.002;22.014;2023-03-07T14:21:43;97689.58;;;9.56;41.36
65010;BME280;51556;50.002;22.014;2023-03-07T14:24:51;97683.01;;;9.62;41.33
65010;BME280;51556;50.002;22.014;2023-03-07T14:27:14;97681.30;;;9.57;41.34
65010;BME280;51556;50.002;22.014;2023-03-07T14:29:51;97676.01;;;9.58;41.45
65010;BME280;51556;50.002;22.014;2023-03-07T14:32:28;97674.71;;;9.62;41.20
65010;BME280;51556;50.002;22.014;2023-03-07T14:34:55;97670.95;;;9.71;41.67
65010;BME280;51556;50.002;22.014;2023-03-07T14:37:23;97666.96;;;9.70;41.78
65010;BME280;51556;50.002;22.014;2023-03-07T14:50:59;97662.63;;;9.55;42.19
65010;BME280;51556;50.002;22.014;2023-03-07T14:53:28;97662.09;;;9.55;42.25
65010;BME280;51556;50.002;22.014;2023-03-07T14:55:54;97659.48;;;9.61;42.90
65010;BME280;51556;50.002;22.014;2023-03-07T14:58:26;97655.19;;;9.63;42.68
65010;BME280;51556;50.002;22.014;2023-03-07T15:01:03;97654.46;;;9.67;42.84